createdAt,value
2023-03-03T00:01:32.837Z,7.47
2023-03-03T00:04:00.119Z,6.73
2023-03-03T00:06:27.146Z,6.90
2023-03-03T00:08:53.738Z,7.20
2023-03-03T00:11:20.313Z,7.33
2023-03-03T00:13:48.371Z,7.67
2023-03-03T00:16:16.780Z,7.20
2023-03-03T00:18:46.410Z,7.50
2023-03-03T00:21:29.216Z,7.37
2023-03-03T00:24:15.284Z,7.27
2023-03-03T00:26:45.848Z,6.97
2023-03-03T00:29:46.350Z,7.80
2023-03-03T00:32:15.917Z,7.50
2023-03-03T00:34:43.659Z,7.87
2023-03-03T00:37:33.353Z,7.63
2023-03-03T00:40:17.849Z,7.63
2023-03-03T00:42:49.483Z,7.67
2023-03-03T00:45:25.588Z,9.20
2023-03-03T00:47:52.249Z,8.50
2023-03-03T00:50:31.023Z,9.37
2023-03-03T00:53:24.968Z,10.57
2023-03-03T00:55:52.822Z,9.63
2023-03-03T00:58:21.778Z,9.03
2023-03-03T01:00:52.083Z,9.53
2023-03-03T01:03:24.728Z,9.17
2023-03-03T01:05:52.964Z,9.43
2023-03-03T01:08:19.850Z,10.43
2023-03-03T01:10:53.039Z,9.63
2023-03-03T01:13:23.798Z,9.20
2023-03-03T01:15:52.683Z,8.93
2023-03-03T01:18:19.736Z,10.37
2023-03-03T01:20:46.521Z,10.03
2023-03-03T01:23:13.652Z,10.87
2023-03-03T01:25:40.606Z,10.60
2023-03-03T01:28:07.853Z,9.77
2023-03-03T01:30:34.630Z,11.37
2023-03-03T01:33:01.283Z,11.27
2023-03-03T01:35:29.933Z,10.17
2023-03-03T01:37:57.251Z,10.90
2023-03-03T01:40:27.690Z,11.43
2023-03-03T01:42:54.480Z,12.00
2023-03-03T01:45:25.820Z,11.97
2023-03-03T01:48:04.790Z,12.10
2023-03-03T01:50:59.472Z,13.20
2023-03-03T01:53:33.591Z,12.27
2023-03-03T01:56:02.181Z,12.10
2023-03-03T01:58:37.569Z,11.60
2023-03-03T02:01:09.427Z,11.93
2023-03-03T02:03:36.123Z,12.30
2023-03-03T02:06:09.642Z,12.70
2023-03-03T02:09:06.423Z,13.10
2023-03-03T02:11:36.714Z,12.60
2023-03-03T02:14:03.580Z,12.70
2023-03-03T02:16:30.739Z,12.10
2023-03-03T02:18:57.557Z,12.97
2023-03-03T02:21:28.802Z,13.17
2023-03-03T02:24:25.596Z,12.37
2023-03-03T02:26:52.355Z,11.50
2023-03-03T02:29:20.123Z,12.67
2023-03-03T02:31:47.115Z,11.13
2023-03-03T02:34:14.342Z,11.27
2023-03-03T02:36:41.156Z,11.33
2023-03-03T02:39:07.675Z,12.27
2023-03-03T02:41:46.860Z,11.60
2023-03-03T02:44:19.194Z,13.00
2023-03-03T02:46:48.325Z,13.10
2023-03-03T02:49:18.369Z,13.03
2023-03-03T02:51:45.420Z,13.63
2023-03-03T02:54:14.569Z,12.43
2023-03-03T02:56:41.963Z,12.73
2023-03-03T02:59:08.693Z,13.37
2023-03-03T03:01:41.093Z,12.70
2023-03-03T03:04:15.043Z,12.63
2023-03-03T03:06:45.329Z,12.93
2023-03-03T03:09:14.949Z,14.63
2023-03-03T03:11:42.793Z,13.53
2023-03-03T03:14:11.630Z,13.27
2023-03-03T03:16:39.347Z,12.70
2023-03-03T03:19:06.009Z,12.87
2023-03-03T03:21:33.754Z,15.00
2023-03-03T03:24:00.705Z,13.93
2023-03-03T03:26:27.840Z,14.67
2023-03-03T03:28:54.880Z,14.03
2023-03-03T03:31:21.927Z,14.13
2023-03-03T03:33:49.285Z,14.07
2023-03-03T03:36:17.680Z,13.97
2023-03-03T03:38:44.649Z,14.00
2023-03-03T03:41:12.868Z,14.67
2023-03-03T03:43:40.144Z,13.87
2023-03-03T03:46:07.457Z,14.00
2023-03-03T03:48:34.786Z,14.30
2023-03-03T03:51:04.012Z,16.07
2023-03-03T03:53:31.796Z,14.43
2023-03-03T03:55:58.441Z,14.20
2023-03-03T03:58:25.149Z,14.03
2023-03-03T04:01:05.499Z,15.13
2023-03-03T04:03:34.436Z,13.10
2023-03-03T04:06:03.656Z,15.00
2023-03-03T04:08:30.401Z,16.73
2023-03-03T04:10:57.042Z,14.90
2023-03-03T04:13:24.448Z,15.17
2023-03-03T04:15:51.264Z,14.90
2023-03-03T04:18:17.879Z,15.43
2023-03-03T04:20:46.033Z,15.03
2023-03-03T04:23:12.890Z,16.03
2023-03-03T04:25:39.536Z,17.20
2023-03-03T04:28:13.032Z,14.83
2023-03-03T04:30:39.886Z,16.20
2023-03-03T04:33:06.677Z,16.17
2023-03-03T04:35:34.286Z,16.10
2023-03-03T04:38:01.881Z,17.40
2023-03-03T04:40:28.855Z,17.43
2023-03-03T04:42:55.905Z,16.60
2023-03-03T04:45:24.087Z,15.07
2023-03-03T04:47:50.753Z,16.43
2023-03-03T04:50:17.713Z,16.43
2023-03-03T04:52:44.461Z,15.80
2023-03-03T04:55:12.358Z,15.57
2023-03-03T04:57:40.040Z,16.50
2023-03-03T05:00:07.820Z,16.33
2023-03-03T05:02:34.436Z,17.03
2023-03-03T05:05:01.491Z,20.20
2023-03-03T05:07:28.141Z,20.70
2023-03-03T05:09:54.726Z,21.27
2023-03-03T05:12:21.327Z,19.43
2023-03-03T05:14:48.511Z,20.37
2023-03-03T05:17:15.125Z,18.00
2023-03-03T05:19:41.694Z,18.57
2023-03-03T05:22:08.290Z,17.50
2023-03-03T05:24:34.857Z,16.80
2023-03-03T05:27:01.776Z,14.83
2023-03-03T05:29:28.649Z,14.93
2023-03-03T05:31:55.293Z,15.03
2023-03-03T05:34:21.881Z,16.57
2023-03-03T05:36:48.454Z,15.63
2023-03-03T05:39:15.077Z,15.53
2023-03-03T05:41:41.701Z,15.93
2023-03-03T05:44:08.633Z,15.23
2023-03-03T05:46:35.427Z,15.03
2023-03-03T05:49:02.568Z,14.67
2023-03-03T05:51:29.341Z,15.33
2023-03-03T05:53:56.638Z,15.70
2023-03-03T05:56:23.323Z,15.03
2023-03-03T05:58:50.156Z,15.97
2023-03-03T06:01:16.965Z,15.80
2023-03-03T06:03:43.559Z,16.07
2023-03-03T06:06:10.254Z,17.13
2023-03-03T06:08:36.838Z,16.47
2023-03-03T06:11:03.801Z,16.73
2023-03-03T06:13:30.511Z,15.97
2023-03-03T06:15:57.237Z,15.67
2023-03-03T06:18:23.822Z,16.00
2023-03-03T06:20:53.314Z,17.40
2023-03-03T06:23:20.059Z,17.10
2023-03-03T06:25:47.604Z,17.83
2023-03-03T06:28:15.004Z,19.47
2023-03-03T06:30:41.883Z,19.07
2023-03-03T06:33:08.537Z,18.30
2023-03-03T06:35:35.303Z,16.77
2023-03-03T06:38:02.346Z,16.27
2023-03-03T06:40:28.954Z,17.03
2023-03-03T06:42:55.986Z,17.87
2023-03-03T06:45:22.580Z,18.53
2023-03-03T06:47:49.136Z,21.77
2023-03-03T06:50:20.339Z,19.93
2023-03-03T06:52:47.219Z,21.10
2023-03-03T06:55:22.889Z,19.43
2023-03-03T06:57:49.629Z,21.23
2023-03-03T07:00:29.568Z,21.23
2023-03-03T07:03:06.001Z,20.60
2023-03-03T07:05:34.406Z,22.20
2023-03-03T07:08:01.008Z,21.17
2023-03-03T07:10:30.742Z,20.97
2023-03-03T07:13:06.983Z,21.10
2023-03-03T07:15:35.951Z,23.47
2023-03-03T07:18:04.653Z,21.77
2023-03-03T07:20:39.713Z,21.57
2023-03-03T07:23:20.988Z,21.27
2023-03-03T07:25:48.561Z,24.30
2023-03-03T07:28:25.580Z,23.37
2023-03-03T07:30:53.314Z,22.63
2023-03-03T07:33:31.611Z,22.87
2023-03-03T07:35:59.546Z,23.17
2023-03-03T07:38:42.380Z,25.53
2023-03-03T07:41:20.870Z,22.70
2023-03-03T07:44:00.117Z,24.37
2023-03-03T07:46:35.107Z,23.90
2023-03-03T07:49:12.437Z,23.27
2023-03-03T07:51:42.192Z,22.47
2023-03-03T07:54:28.413Z,23.67
2023-03-03T07:57:22.513Z,20.47
2023-03-03T08:00:02.994Z,22.90
2023-03-03T08:02:41.479Z,26.00
2023-03-03T08:05:36.263Z,27.80
2023-03-03T08:08:17.546Z,25.97
2023-03-03T08:10:53.169Z,23.77
2023-03-03T08:13:24.924Z,24.83
2023-03-03T08:16:02.528Z,24.27
2023-03-03T08:18:34.540Z,25.50
2023-03-03T08:21:05.433Z,26.77
2023-03-03T08:23:32.005Z,30.50
2023-03-03T08:25:58.587Z,24.83
2023-03-03T08:28:25.187Z,25.87
2023-03-03T08:30:54.399Z,26.20
2023-03-03T08:33:27.064Z,26.17
2023-03-03T08:35:53.677Z,26.43
2023-03-03T08:38:21.702Z,25.70
2023-03-03T08:40:49.236Z,28.93
2023-03-03T08:43:22.776Z,25.50
2023-03-03T08:45:51.198Z,26.73
2023-03-03T08:48:18.092Z,26.47
2023-03-03T08:50:45.433Z,25.70
2023-03-03T08:53:14.090Z,25.33
2023-03-03T08:55:41.993Z,24.50
2023-03-03T08:58:08.594Z,26.70
2023-03-03T09:00:36.124Z,28.07
2023-03-03T09:03:03.038Z,27.33
2023-03-03T09:05:29.926Z,27.23
2023-03-03T09:07:56.807Z,26.70
2023-03-03T09:10:29.321Z,26.60
2023-03-03T09:13:01.334Z,24.97
2023-03-03T09:15:34.114Z,25.47
2023-03-03T09:18:15.003Z,25.70
2023-03-03T09:20:47.177Z,25.47
2023-03-03T09:23:39.154Z,27.40
2023-03-03T09:26:35.104Z,25.73
2023-03-03T09:29:23.438Z,25.50
2023-03-03T09:31:55.972Z,26.60
2023-03-03T09:34:38.233Z,25.13
2023-03-03T09:37:28.614Z,25.43
2023-03-03T09:39:57.520Z,26.67
2023-03-03T09:42:51.802Z,26.10
2023-03-03T09:45:26.190Z,21.23
2023-03-03T09:48:06.815Z,25.97
2023-03-03T09:50:39.986Z,26.97
2023-03-03T09:53:15.634Z,26.90
2023-03-03T09:55:57.214Z,25.50
2023-03-03T09:58:37.453Z,24.03
2023-03-03T10:01:22.321Z,23.73
2023-03-03T10:04:05.934Z,23.07
2023-03-03T10:06:45.746Z,23.03
2023-03-03T10:09:35.768Z,24.43
2023-03-03T10:12:24.007Z,22.50
2023-03-03T10:15:03.347Z,22.93
2023-03-03T10:18:04.273Z,25.13
2023-03-03T10:20:49.473Z,22.90
2023-03-03T10:23:38.852Z,21.97
2023-03-03T10:26:44.871Z,22.53
2023-03-03T10:29:30.901Z,22.27
2023-03-03T10:32:23.053Z,21.57
2023-03-03T10:35:08.332Z,21.73
2023-03-03T10:37:57.962Z,22.07
2023-03-03T10:41:10.771Z,22.57
2023-03-03T10:44:02.010Z,22.43
2023-03-03T10:46:34.276Z,21.50
2023-03-03T10:49:19.697Z,20.90
2023-03-03T10:52:02.355Z,20.33
2023-03-03T10:54:50.954Z,20.47
2023-03-03T10:57:36.831Z,19.73
2023-03-03T11:00:48.800Z,20.23
2023-03-03T11:03:27.315Z,20.60
2023-03-03T11:06:47.943Z,21.03
2023-03-03T11:09:29.345Z,21.33
2023-03-03T11:12:10.899Z,20.40
2023-03-03T11:14:51.038Z,23.63
2023-03-03T11:17:23.812Z,20.97
2023-03-03T11:19:58.870Z,21.40
2023-03-03T11:22:43.002Z,22.53
2023-03-03T11:25:21.665Z,21.97
2023-03-03T11:28:21.437Z,22.13
2023-03-03T11:30:57.398Z,21.23
2023-03-03T11:33:52.806Z,22.10
2023-03-03T11:36:42.017Z,21.40
2023-03-03T11:39:18.363Z,21.80
2023-03-03T11:42:23.370Z,21.70
2023-03-03T11:44:56.876Z,21.63
2023-03-03T11:47:55.681Z,21.47
2023-03-03T11:50:30.474Z,20.27
2023-03-03T11:53:28.986Z,21.37
2023-03-03T11:56:02.949Z,20.80
2023-03-03T11:58:44.947Z,21.57
2023-03-03T12:01:19.005Z,22.47
2023-03-03T12:03:53.504Z,21.93
2023-03-03T12:06:44.508Z,18.07
2023-03-03T12:09:41.899Z,22.37
2023-03-03T12:12:21.006Z,21.47
2023-03-03T12:15:03.885Z,21.63
2023-03-03T12:17:30.405Z,21.33
2023-03-03T12:20:18.302Z,22.30
2023-03-03T12:23:05.956Z,23.10
2023-03-03T12:25:38.620Z,23.43
2023-03-03T12:28:17.344Z,21.93
2023-03-03T12:31:02.481Z,22.23
2023-03-03T12:33:53.093Z,22.27
2023-03-03T12:36:45.243Z,20.27
2023-03-03T12:39:33.932Z,18.97
2023-03-03T12:42:20.629Z,20.57
2023-03-03T12:45:12.830Z,21.60
2023-03-03T12:47:49.238Z,21.77
2023-03-03T12:50:32.993Z,26.10
2023-03-03T12:53:26.925Z,20.90
2023-03-03T12:56:00.044Z,22.87
2023-03-03T12:58:46.416Z,21.00
2023-03-03T13:01:28.530Z,20.70
2023-03-03T13:04:05.286Z,21.10
2023-03-03T13:06:46.909Z,20.27
2023-03-03T13:10:02.272Z,21.33
2023-03-03T13:12:54.089Z,20.13
2023-03-03T13:15:32.715Z,20.03
2023-03-03T13:18:02.984Z,21.30
2023-03-03T13:20:55.958Z,20.17
2023-03-03T13:23:29.486Z,20.00
2023-03-03T13:26:03.204Z,21.33
2023-03-03T13:28:54.500Z,22.50
2023-03-03T13:31:25.229Z,21.43
2023-03-03T13:33:56.876Z,22.03
2023-03-03T13:36:31.599Z,21.23
2023-03-03T13:39:05.836Z,22.13
2023-03-03T13:42:02.769Z,22.20
2023-03-03T13:44:44.722Z,19.90
2023-03-03T13:47:24.186Z,21.40
2023-03-03T13:50:06.082Z,20.93
2023-03-03T13:52:49.688Z,21.27
2023-03-03T13:55:32.101Z,20.67
2023-03-03T13:57:58.891Z,20.77
2023-03-03T14:00:32.091Z,21.63
2023-03-03T14:03:24.521Z,20.07
2023-03-03T14:05:56.286Z,20.00
2023-03-03T14:08:53.851Z,20.13
2023-03-03T14:11:32.223Z,20.87
2023-03-03T14:14:21.115Z,21.80
2023-03-03T14:17:03.561Z,22.73
2023-03-03T14:20:03.813Z,22.27
2023-03-03T14:22:46.904Z,20.80
2023-03-03T14:25:15.941Z,22.40
2023-03-03T14:27:48.643Z,22.60
2023-03-03T14:30:27.477Z,22.63
2023-03-03T14:33:03.320Z,23.40
2023-03-03T14:35:34.030Z,22.17
2023-03-03T14:38:04.498Z,22.30
2023-03-03T14:40:33.062Z,22.70
2023-03-03T14:43:02.162Z,23.93
2023-03-03T14:45:36.663Z,24.00
2023-03-03T14:48:18.473Z,22.93
2023-03-03T14:51:04.705Z,23.00
2023-03-03T14:53:35.731Z,22.13
2023-03-03T14:56:22.521Z,24.27
2023-03-03T14:58:50.038Z,24.43
2023-03-03T15:01:34.258Z,25.27
2023-03-03T15:04:07.659Z,23.67
2023-03-03T15:06:35.974Z,24.03
2023-03-03T15:09:33.850Z,25.23
2023-03-03T15:12:01.829Z,24.47
2023-03-03T15:14:50.107Z,24.07
2023-03-03T15:17:53.674Z,24.33
2023-03-03T15:20:41.684Z,24.90
2023-03-03T15:23:18.464Z,24.40
2023-03-03T15:26:14.410Z,23.90
2023-03-03T15:28:59.777Z,23.77
2023-03-03T15:32:15.863Z,22.47
2023-03-03T15:35:07.254Z,22.47
2023-03-03T15:37:55.307Z,20.97
2023-03-03T15:40:43.049Z,20.10
2023-03-03T15:43:26.024Z,21.30
2023-03-03T15:46:04.788Z,23.43
2023-03-03T15:48:58.655Z,22.27
2023-03-03T15:52:02.397Z,26.90
2023-03-03T15:54:36.872Z,27.93
2023-03-03T15:57:21.524Z,27.43
2023-03-03T15:59:56.080Z,22.60
2023-03-03T16:02:47.120Z,19.93
2023-03-03T16:05:26.809Z,20.80
2023-03-03T16:07:58.791Z,23.50
2023-03-03T16:10:52.446Z,25.53
2023-03-03T16:13:29.464Z,26.67
2023-03-03T16:15:58.801Z,27.27
2023-03-03T16:18:34.281Z,28.93
2023-03-03T16:21:39.918Z,25.57
2023-03-03T16:24:38.461Z,24.73
2023-03-03T16:27:19.076Z,26.13
2023-03-03T16:30:05.372Z,26.37
2023-03-03T16:32:42.684Z,24.70
2023-03-03T16:35:31.034Z,23.63
2023-03-03T16:38:22.198Z,23.47
2023-03-03T16:40:55.209Z,25.90
2023-03-03T16:43:46.926Z,25.40
2023-03-03T16:46:37.945Z,27.20
2023-03-03T16:49:28.479Z,27.30
2023-03-03T16:52:13.088Z,27.60
2023-03-03T16:54:44.577Z,26.20
2023-03-03T16:57:26.214Z,26.07
2023-03-03T17:00:02.811Z,26.93
2023-03-03T17:02:46.628Z,32.50
2023-03-03T17:05:31.824Z,35.40
2023-03-03T17:08:18.389Z,38.13
2023-03-03T17:10:58.145Z,26.83
2023-03-03T17:13:37.246Z,26.07
2023-03-03T17:16:25.251Z,30.67
2023-03-03T17:19:29.630Z,26.40
2023-03-03T17:22:12.964Z,25.83
2023-03-03T17:24:52.143Z,25.53
2023-03-03T17:27:37.180Z,28.17
2023-03-03T17:30:09.815Z,24.40
2023-03-03T17:33:04.015Z,23.57
2023-03-03T17:36:00.133Z,23.70
2023-03-03T17:39:00.330Z,23.93
2023-03-03T17:41:48.100Z,23.50
2023-03-03T17:44:34.011Z,24.23
2023-03-03T17:47:07.121Z,25.97
2023-03-03T17:49:57.684Z,25.43
2023-03-03T17:52:41.598Z,25.77
2023-03-03T17:55:45.723Z,25.30
2023-03-03T17:58:15.013Z,25.07
2023-03-03T18:01:03.589Z,27.67
2023-03-03T18:03:48.537Z,25.90
2023-03-03T18:06:29.774Z,25.80
2023-03-03T18:09:18.036Z,26.30
2023-03-03T18:11:58.856Z,28.43
2023-03-03T18:14:42.549Z,27.53
2023-03-03T18:17:27.153Z,24.97
2023-03-03T18:20:20.928Z,26.43
2023-03-03T18:22:53.066Z,25.60
2023-03-03T18:25:46.326Z,24.20
2023-03-03T18:28:21.427Z,24.13
2023-03-03T18:30:58.214Z,24.10
2023-03-03T18:33:44.285Z,24.97
2023-03-03T18:36:26.299Z,25.37
2023-03-03T18:38:56.418Z,26.30
2023-03-03T18:41:26.250Z,26.50
2023-03-03T18:43:58.816Z,25.97
2023-03-03T18:46:25.409Z,25.20
2023-03-03T18:48:57.145Z,24.23
2023-03-03T18:51:39.096Z,24.50
2023-03-03T18:54:18.625Z,24.50
2023-03-03T18:56:46.778Z,25.40
2023-03-03T18:59:40.598Z,23.83
2023-03-03T19:02:13.399Z,25.00
2023-03-03T19:04:48.684Z,25.63
2023-03-03T19:07:27.064Z,27.97
2023-03-03T19:09:58.162Z,26.27
2023-03-03T19:12:55.408Z,26.03
2023-03-03T19:15:31.402Z,25.07
2023-03-03T19:18:19.308Z,27.20
2023-03-03T19:21:25.089Z,26.53
2023-03-03T19:24:03.560Z,26.67
2023-03-03T19:27:06.629Z,27.20
2023-03-03T19:29:33.141Z,27.43
2023-03-03T19:32:18.168Z,27.20
2023-03-03T19:35:18.547Z,28.67
2023-03-03T19:37:50.969Z,27.87
2023-03-03T19:40:41.426Z,29.10
2023-03-03T19:43:11.311Z,32.57
2023-03-03T19:45:37.855Z,30.37
2023-03-03T19:48:22.731Z,30.40
2023-03-03T19:50:59.017Z,31.27
2023-03-03T19:53:43.190Z,31.80
2023-03-03T19:56:09.857Z,31.70
2023-03-03T19:59:07.355Z,31.00
2023-03-03T20:01:43.879Z,31.67
2023-03-03T20:04:23.527Z,36.67
2023-03-03T20:07:08.389Z,41.00
2023-03-03T20:09:37.852Z,38.60
2023-03-03T20:12:29.973Z,39.33
2023-03-03T20:15:18.966Z,38.23
2023-03-03T20:18:07.309Z,38.47
2023-03-03T20:20:56.056Z,38.77
2023-03-03T20:23:59.526Z,35.87
2023-03-03T20:26:29.948Z,34.87
2023-03-03T20:29:08.654Z,35.33
2023-03-03T20:31:45.353Z,37.87
2023-03-03T20:34:47.266Z,37.30
2023-03-03T20:37:35.317Z,36.13
2023-03-03T20:40:18.002Z,37.73
2023-03-03T20:43:18.907Z,35.90
2023-03-03T20:46:07.878Z,36.20
2023-03-03T20:48:49.766Z,37.37
2023-03-03T20:51:46.673Z,38.10
2023-03-03T20:54:22.316Z,36.50
2023-03-03T20:57:35.070Z,36.87
2023-03-03T21:00:13.362Z,35.03
2023-03-03T21:03:01.076Z,37.63
2023-03-03T21:05:27.913Z,36.87
2023-03-03T21:07:58.592Z,36.37
2023-03-03T21:10:30.801Z,35.37
2023-03-03T21:13:18.824Z,34.83
2023-03-03T21:16:00.135Z,35.10
2023-03-03T21:18:27.168Z,36.03
2023-03-03T21:20:54.191Z,36.77
2023-03-03T21:23:22.882Z,35.63
2023-03-03T21:25:52.260Z,33.97
2023-03-03T21:28:33.555Z,36.00
2023-03-03T21:31:02.792Z,37.40
2023-03-03T21:33:57.849Z,34.63
2023-03-03T21:36:45.740Z,35.63
2023-03-03T21:39:32.746Z,35.13
2023-03-03T21:42:05.467Z,34.80
2023-03-03T21:44:46.913Z,36.00
2023-03-03T21:47:15.377Z,36.10
2023-03-03T21:49:43.607Z,37.30
2023-03-03T21:52:11.581Z,36.80
2023-03-03T21:54:38.507Z,36.30
2023-03-03T21:57:05.457Z,36.10
2023-03-03T21:59:32.044Z,37.80
2023-03-03T22:01:58.695Z,36.60
2023-03-03T22:04:25.492Z,37.47
2023-03-03T22:06:52.844Z,35.07
2023-03-03T22:09:19.729Z,35.43
2023-03-03T22:11:46.683Z,37.10
2023-03-03T22:14:13.999Z,39.20
2023-03-03T22:16:40.958Z,38.47
2023-03-03T22:19:09.308Z,36.87
2023-03-03T22:21:37.520Z,40.40
2023-03-03T22:24:04.910Z,38.40
2023-03-03T22:26:31.569Z,38.17
2023-03-03T22:28:58.173Z,36.30
2023-03-03T22:31:24.867Z,34.27
2023-03-03T22:33:51.515Z,35.80
2023-03-03T22:36:19.089Z,37.13
2023-03-03T22:38:47.234Z,35.43
2023-03-03T22:41:15.154Z,38.23
2023-03-03T22:43:42.121Z,35.30
2023-03-03T22:46:10.040Z,35.83
2023-03-03T22:48:38.132Z,35.03
2023-03-03T22:51:05.218Z,32.90
2023-03-03T22:53:31.954Z,34.13
2023-03-03T22:55:58.790Z,34.13
2023-03-03T22:58:26.221Z,34.57
2023-03-03T23:00:54.694Z,34.17
2023-03-03T23:03:21.898Z,33.80
2023-03-03T23:05:51.790Z,34.07
2023-03-03T23:08:20.641Z,34.67
2023-03-03T23:10:48.320Z,36.20
2023-03-03T23:13:15.644Z,33.57
2023-03-03T23:15:42.753Z,33.80
2023-03-03T23:18:09.544Z,35.47
2023-03-03T23:20:36.420Z,33.70
2023-03-03T23:23:03.642Z,35.60
2023-03-03T23:25:30.282Z,35.43
2023-03-03T23:27:57.601Z,34.37
2023-03-03T23:30:24.573Z,33.30
2023-03-03T23:32:51.759Z,36.70
2023-03-03T23:35:19.448Z,34.83
2023-03-03T23:37:46.138Z,33.63
2023-03-03T23:40:14.721Z,36.40
2023-03-03T23:42:41.302Z,35.67
2023-03-03T23:45:09.232Z,36.83
2023-03-03T23:47:35.845Z,33.40
2023-03-03T23:50:02.593Z,32.97
2023-03-03T23:52:29.241Z,32.67
2023-03-03T23:54:56.144Z,32.87
2023-03-03T23:57:22.842Z,31.40
2023-03-03T23:59:49.901Z,33.57
